Terminal Aerodrome Forecast
Issued by NWS

Home | Current Version | Previous Version | Text Only | Print | Product List | Glossary On
Versions: 1 2 3 4 5 6 7 8 9 10 11 12 13 14 15 16 17 18 19 20 21 22 23 24 25 26
000
FTUS43 KFGF 171135
TAFDVL
TAF
KDVL 171135Z 1712/1812 33008KT P6SM SCT008 BKN025
     FM171900 35008KT P6SM BKN035
     FM180000 VRB03KT P6SM BKN050=

USA.gov is the U.S. government's official web portal to all federal, state and local government web resources and services.